Pagrindinis puslapis
METAR-TAF:

METAR-TAF

Oro uostai :

Salvadoras, Salvadoras

platuma: 13-26N, ilguma: 089-03W, Aukštis: 25 m

Dabartinis oras

Ataskaita buvo paskelbta 16 minutes, ne 09:50 UTC
Vėjas 5 kt iš Rytų/Šiaurės Rytų
Temperatūra 24°C
Drėgmė 94%
Slėgis 1007 hPa
Matomumas: 8000 m
Mažai debesys ne aukštis 500 ft
Su prošvaistėmis ne aukštis 1700 ft
lietus

METAR: MSLP 040950Z 06005KT 8000 RA FEW005 BKN017 24/23 Q1007 A2975 NOSIG

Laikas: 04:06 (10:06 UTC)

Prognozė

Ataskaita buvo paskelbta 6 valandos ir 41 minutes, ne 03:25 UTC
Prognozė galioja nuo 04 metu 06 UTC su 05 metu 06 UTC
Vėjas 4 kt iš Rytų/Šiaurės Rytų
Matomumas 10 km arba daugiau
Mažai debesys ne aukštis 2000 ft
Išsisklaidę debesys ne aukštis 6000 ft
Nuo 04 metu 1800 UTC
Vėjas 8 kt iš Pietų
Matomumas: 5000 m
Išsisklaidę debesys ne aukštis 1000 ft
Su prošvaistėmis ne aukštis 1700 ft
lietus
Nuo 05 metu 0300 UTC
Vėjas 4 kt iš Šiaurės Rytų

TAF: MSLP 040325Z 0406/0506 06004KT 9999 FEW020 SCT060 TX30/0418Z TN24/0410Z FM041800 18008KT 5000 RA SCT010 BKN017 FM050300 04004KT

Orai ataskaitas ir orų prognozės (METAR, TAF).

turimą stotys yra geltonos ir raudonos taškus žemėlapyje.

Perkelti pele per norėdami pamatyti stoties vardą.

Tada spustelėkite, norėdami matyti oro stebėjimo ir prognozės.

Norėdami pakeisti žemėlapį: spustelėkite ant žalios mygtukų su juodo kryžiaus žemyn,; žalią mygtuką su brūkšneliu, jei norite nutolinti; arba žalių rodyklių gretimoms žemėlapius.


METAR-TAF: